sensor_id;sensor_type;location;lat;lon;timestamp;temperature;humidity
1337;DHT22;662;48.814;9.318;2023-11-19T00:02:23;10.40;79.50
1337;DHT22;662;48.814;9.318;2023-11-19T00:04:49;10.50;79.70
1337;DHT22;662;48.814;9.318;2023-11-19T00:07:14;10.50;80.00
1337;DHT22;662;48.814;9.318;2023-11-19T00:09:40;10.40;80.20
1337;DHT22;662;48.814;9.318;2023-11-19T00:12:07;10.40;80.80
1337;DHT22;662;48.814;9.318;2023-11-19T00:14:33;10.40;81.60
1337;DHT22;662;48.814;9.318;2023-11-19T00:16:59;10.40;82.10
1337;DHT22;662;48.814;9.318;2023-11-19T00:19:25;10.40;82.50
1337;DHT22;662;48.814;9.318;2023-11-19T00:21:51;10.50;83.10
1337;DHT22;662;48.814;9.318;2023-11-19T00:24:17;10.50;83.40
1337;DHT22;662;48.814;9.318;2023-11-19T00:26:43;10.50;83.70
1337;DHT22;662;48.814;9.318;2023-11-19T00:29:09;10.50;84.00
1337;DHT22;662;48.814;9.318;2023-11-19T00:31:35;10.50;84.30
1337;DHT22;662;48.814;9.318;2023-11-19T00:34:02;10.60;84.70
1337;DHT22;662;48.814;9.318;2023-11-19T00:36:28;10.50;84.90
1337;DHT22;662;48.814;9.318;2023-11-19T00:38:54;10.50;85.00
1337;DHT22;662;48.814;9.318;2023-11-19T00:41:20;10.60;85.10
1337;DHT22;662;48.814;9.318;2023-11-19T00:43:46;10.60;85.30
1337;DHT22;662;48.814;9.318;2023-11-19T00:46:12;10.60;85.60
1337;DHT22;662;48.814;9.318;2023-11-19T00:48:39;10.60;85.60
1337;DHT22;662;48.814;9.318;2023-11-19T00:51:05;10.70;85.60
1337;DHT22;662;48.814;9.318;2023-11-19T00:53:30;10.70;85.50
1337;DHT22;662;48.814;9.318;2023-11-19T00:55:57;10.70;85.40
1337;DHT22;662;48.814;9.318;2023-11-19T00:58:23;10.80;85.80
1337;DHT22;662;48.814;9.318;2023-11-19T01:00:49;10.80;85.80
1337;DHT22;662;48.814;9.318;2023-11-19T01:03:14;10.80;85.80
1337;DHT22;662;48.814;9.318;2023-11-19T01:05:41;10.80;85.90
1337;DHT22;662;48.814;9.318;2023-11-19T01:08:07;10.80;86.00
1337;DHT22;662;48.814;9.318;2023-11-19T01:10:33;10.80;86.20
1337;DHT22;662;48.814;9.318;2023-11-19T01:12:59;10.80;86.50
1337;DHT22;662;48.814;9.318;2023-11-19T01:15:25;10.90;86.70
1337;DHT22;662;48.814;9.318;2023-11-19T01:17:52;10.90;86.70
1337;DHT22;662;48.814;9.318;2023-11-19T01:20:18;10.90;87.00
1337;DHT22;662;48.814;9.318;2023-11-19T01:22:43;10.90;87.00
1337;DHT22;662;48.814;9.318;2023-11-19T01:25:10;11.00;87.10
1337;DHT22;662;48.814;9.318;2023-11-19T01:27:35;11.00;87.20
1337;DHT22;662;48.814;9.318;2023-11-19T01:30:02;11.00;87.50
1337;DHT22;662;48.814;9.318;2023-11-19T01:32:34;11.00;87.70
1337;DHT22;662;48.814;9.318;2023-11-19T01:35:02;11.10;87.80
1337;DHT22;662;48.814;9.318;2023-11-19T01:37:28;11.10;88.00
1337;DHT22;662;48.814;9.318;2023-11-19T01:39:53;11.20;88.20
1337;DHT22;662;48.814;9.318;2023-11-19T01:42:19;11.20;88.20
1337;DHT22;662;48.814;9.318;2023-11-19T01:44:58;11.20;88.20
1337;DHT22;662;48.814;9.318;2023-11-19T01:47:25;11.20;88.10
1337;DHT22;662;48.814;9.318;2023-11-19T01:49:51;11.20;88.00
1337;DHT22;662;48.814;9.318;2023-11-19T01:52:17;11.30;87.90
1337;DHT22;662;48.814;9.318;2023-11-19T01:54:43;11.30;87.70
1337;DHT22;662;48.814;9.318;2023-11-19T01:57:10;11.30;87.50
1337;DHT22;662;48.814;9.318;2023-11-19T01:59:36;11.30;87.30
1337;DHT22;662;48.814;9.318;2023-11-19T02:02:04;11.30;87.20
1337;DHT22;662;48.814;9.318;2023-11-19T02:04:30;11.30;87.20
1337;DHT22;662;48.814;9.318;2023-11-19T02:06:58;11.40;87.20
1337;DHT22;662;48.814;9.318;2023-11-19T02:09:24;11.40;87.10
1337;DHT22;662;48.814;9.318;2023-11-19T02:11:49;11.40;87.30
1337;DHT22;662;48.814;9.318;2023-11-19T02:14:17;11.40;87.40
1337;DHT22;662;48.814;9.318;2023-11-19T02:16:43;11.40;87.40
1337;DHT22;662;48.814;9.318;2023-11-19T02:19:09;11.50;87.30
1337;DHT22;662;48.814;9.318;2023-11-19T02:21:37;11.50;87.10
1337;DHT22;662;48.814;9.318;2023-11-19T02:24:06;11.40;86.80
1337;DHT22;662;48.814;9.318;2023-11-19T02:26:39;11.40;86.50
1337;DHT22;662;48.814;9.318;2023-11-19T02:29:05;11.40;86.40
1337;DHT22;662;48.814;9.318;2023-11-19T02:31:32;11.40;86.20
1337;DHT22;662;48.814;9.318;2023-11-19T02:33:59;11.40;86.10
1337;DHT22;662;48.814;9.318;2023-11-19T02:36:25;11.40;85.90
1337;DHT22;662;48.814;9.318;2023-11-19T02:38:51;11.40;85.90
1337;DHT22;662;48.814;9.318;2023-11-19T02:41:16;11.40;85.80
1337;DHT22;662;48.814;9.318;2023-11-19T02:43:42;11.40;85.80
1337;DHT22;662;48.814;9.318;2023-11-19T02:46:07;11.40;85.70
1337;DHT22;662;48.814;9.318;2023-11-19T02:48:34;11.40;85.80
1337;DHT22;662;48.814;9.318;2023-11-19T02:51:03;11.40;85.80
1337;DHT22;662;48.814;9.318;2023-11-19T02:53:30;11.40;85.80
1337;DHT22;662;48.814;9.318;2023-11-19T02:55:56;11.40;85.80
1337;DHT22;662;48.814;9.318;2023-11-19T02:58:27;11.40;85.70
1337;DHT22;662;48.814;9.318;2023-11-19T03:00:54;11.40;85.70
1337;DHT22;662;48.814;9.318;2023-11-19T03:03:26;11.40;85.70
1337;DHT22;662;48.814;9.318;2023-11-19T03:05:59;11.40;85.70
1337;DHT22;662;48.814;9.318;2023-11-19T03:08:24;11.40;85.70
1337;DHT22;662;48.814;9.318;2023-11-19T03:10:50;11.40;85.80
1337;DHT22;662;48.814;9.318;2023-11-19T03:13:15;11.40;86.00
1337;DHT22;662;48.814;9.318;2023-11-19T03:15:43;11.40;86.10
1337;DHT22;662;48.814;9.318;2023-11-19T03:18:08;11.40;86.20
1337;DHT22;662;48.814;9.318;2023-11-19T03:20:34;11.40;86.30
1337;DHT22;662;48.814;9.318;2023-11-19T03:23:00;11.40;86.40
1337;DHT22;662;48.814;9.318;2023-11-19T03:25:27;11.40;86.40
1337;DHT22;662;48.814;9.318;2023-11-19T03:27:58;11.40;86.50
1337;DHT22;662;48.814;9.318;2023-11-19T03:30:24;11.40;86.40
1337;DHT22;662;48.814;9.318;2023-11-19T03:32:50;11.40;86.40
1337;DHT22;662;48.814;9.318;2023-11-19T03:35:15;11.40;86.50
1337;DHT22;662;48.814;9.318;2023-11-19T03:37:41;11.40;86.60
1337;DHT22;662;48.814;9.318;2023-11-19T03:40:07;11.40;86.60
1337;DHT22;662;48.814;9.318;2023-11-19T03:42:32;11.40;86.70
1337;DHT22;662;48.814;9.318;2023-11-19T03:44:58;11.40;86.70
1337;DHT22;662;48.814;9.318;2023-11-19T03:47:25;11.40;86.80
1337;DHT22;662;48.814;9.318;2023-11-19T03:49:50;11.40;86.90
1337;DHT22;662;48.814;9.318;2023-11-19T03:52:17;11.50;87.10
1337;DHT22;662;48.814;9.318;2023-11-19T03:54:43;11.50;87.20
1337;DHT22;662;48.814;9.318;2023-11-19T03:57:09;11.50;87.30
1337;DHT22;662;48.814;9.318;2023-11-19T03:59:36;11.50;87.30
1337;DHT22;662;48.814;9.318;2023-11-19T04:02:02;11.50;87.50
1337;DHT22;662;48.814;9.318;2023-11-19T04:04:28;11.50;87.60
1337;DHT22;662;48.814;9.318;2023-11-19T04:06:55;11.50;88.00
1337;DHT22;662;48.814;9.318;2023-11-19T04:09:20;11.50;88.30
1337;DHT22;662;48.814;9.318;2023-11-19T04:11:46;11.50;88.50
1337;DHT22;662;48.814;9.318;2023-11-19T04:14:13;11.60;88.60
1337;DHT22;662;48.814;9.318;2023-11-19T04:16:39;11.60;88.70
1337;DHT22;662;48.814;9.318;2023-11-19T04:19:05;11.60;88.80
1337;DHT22;662;48.814;9.318;2023-11-19T04:21:30;11.60;88.80
1337;DHT22;662;48.814;9.318;2023-11-19T04:23:56;11.60;88.90
1337;DHT22;662;48.814;9.318;2023-11-19T04:26:21;11.70;89.00
1337;DHT22;662;48.814;9.318;2023-11-19T04:28:47;11.70;89.10
1337;DHT22;662;48.814;9.318;2023-11-19T04:31:15;11.70;89.00
1337;DHT22;662;48.814;9.318;2023-11-19T04:33:41;11.70;88.80
1337;DHT22;662;48.814;9.318;2023-11-19T04:36:07;11.70;88.80
1337;DHT22;662;48.814;9.318;2023-11-19T04:38:33;11.70;88.70
1337;DHT22;662;48.814;9.318;2023-11-19T04:41:00;11.70;88.60
1337;DHT22;662;48.814;9.318;2023-11-19T04:43:25;11.70;88.60
1337;DHT22;662;48.814;9.318;2023-11-19T04:45:51;11.70;88.90
1337;DHT22;662;48.814;9.318;2023-11-19T04:48:17;11.70;89.60
1337;DHT22;662;48.814;9.318;2023-11-19T04:50:42;11.80;90.30
1337;DHT22;662;48.814;9.318;2023-11-19T04:53:08;11.80;90.70
1337;DHT22;662;48.814;9.318;2023-11-19T04:55:33;11.80;90.90
1337;DHT22;662;48.814;9.318;2023-11-19T04:57:59;11.90;91.20
1337;DHT22;662;48.814;9.318;2023-11-19T05:00:25;12.00;91.40
1337;DHT22;662;48.814;9.318;2023-11-19T05:02:51;12.10;91.60
1337;DHT22;662;48.814;9.318;2023-11-19T05:05:16;12.10;91.80
1337;DHT22;662;48.814;9.318;2023-11-19T05:07:43;12.10;91.90
1337;DHT22;662;48.814;9.318;2023-11-19T05:10:08;12.20;92.10
1337;DHT22;662;48.814;9.318;2023-11-19T05:12:34;12.30;92.20
1337;DHT22;662;48.814;9.318;2023-11-19T05:15:00;12.30;92.20
1337;DHT22;662;48.814;9.318;2023-11-19T05:17:26;12.30;92.20
1337;DHT22;662;48.814;9.318;2023-11-19T05:19:51;12.40;92.20
1337;DHT22;662;48.814;9.318;2023-11-19T05:22:17;12.40;92.00
1337;DHT22;662;48.814;9.318;2023-11-19T05:24:43;12.50;91.90
1337;DHT22;662;48.814;9.318;2023-11-19T05:27:08;12.50;91.80
1337;DHT22;662;48.814;9.318;2023-11-19T05:29:36;12.60;91.70
1337;DHT22;662;48.814;9.318;2023-11-19T05:32:04;12.60;91.70
1337;DHT22;662;48.814;9.318;2023-11-19T05:34:30;12.70;91.60
1337;DHT22;662;48.814;9.318;2023-11-19T05:36:56;12.70;91.40
1337;DHT22;662;48.814;9.318;2023-11-19T05:39:22;12.80;91.30
1337;DHT22;662;48.814;9.318;2023-11-19T05:41:48;12.80;91.10
1337;DHT22;662;48.814;9.318;2023-11-19T05:44:14;12.80;91.00
1337;DHT22;662;48.814;9.318;2023-11-19T05:46:39;12.90;90.80
1337;DHT22;662;48.814;9.318;2023-11-19T05:49:11;12.90;90.70
1337;DHT22;662;48.814;9.318;2023-11-19T05:51:37;12.90;90.60
1337;DHT22;662;48.814;9.318;2023-11-19T05:54:05;13.00;90.60
1337;DHT22;662;48.814;9.318;2023-11-19T05:56:32;13.00;90.50
1337;DHT22;662;48.814;9.318;2023-11-19T05:58:58;13.00;90.40
1337;DHT22;662;48.814;9.318;2023-11-19T06:01:26;13.00;90.30
1337;DHT22;662;48.814;9.318;2023-11-19T06:03:52;13.10;90.30
1337;DHT22;662;48.814;9.318;2023-11-19T06:06:18;13.10;90.10
1337;DHT22;662;48.814;9.318;2023-11-19T06:08:44;13.10;90.00
1337;DHT22;662;48.814;9.318;2023-11-19T06:11:10;13.00;90.00
1337;DHT22;662;48.814;9.318;2023-11-19T06:13:43;13.10;89.90
1337;DHT22;662;48.814;9.318;2023-11-19T06:16:09;13.10;89.60
1337;DHT22;662;48.814;9.318;2023-11-19T06:18:34;13.10;89.60
1337;DHT22;662;48.814;9.318;2023-11-19T06:21:01;13.10;89.70
1337;DHT22;662;48.814;9.318;2023-11-19T06:23:27;13.10;89.80
1337;DHT22;662;48.814;9.318;2023-11-19T06:25:52;13.10;89.80
1337;DHT22;662;48.814;9.318;2023-11-19T06:28:18;13.10;89.90
1337;DHT22;662;48.814;9.318;2023-11-19T06:30:44;13.00;90.00
1337;DHT22;662;48.814;9.318;2023-11-19T06:33:13;13.10;90.00
1337;DHT22;662;48.814;9.318;2023-11-19T06:35:38;13.10;90.00
1337;DHT22;662;48.814;9.318;2023-11-19T06:38:04;13.10;89.80
1337;DHT22;662;48.814;9.318;2023-11-19T06:40:30;13.10;89.70
1337;DHT22;662;48.814;9.318;2023-11-19T06:42:56;13.10;89.40
1337;DHT22;662;48.814;9.318;2023-11-19T06:45:22;13.20;89.60
1337;DHT22;662;48.814;9.318;2023-11-19T06:47:48;13.20;89.50
1337;DHT22;662;48.814;9.318;2023-11-19T06:50:13;13.20;89.60
1337;DHT22;662;48.814;9.318;2023-11-19T06:52:40;13.20;89.70
1337;DHT22;662;48.814;9.318;2023-11-19T06:55:06;13.20;89.70
1337;DHT22;662;48.814;9.318;2023-11-19T06:57:32;13.20;90.00
1337;DHT22;662;48.814;9.318;2023-11-19T06:59:58;13.20;89.40
1337;DHT22;662;48.814;9.318;2023-11-19T07:02:24;13.20;89.50
1337;DHT22;662;48.814;9.318;2023-11-19T07:04:50;13.20;89.50
1337;DHT22;662;48.814;9.318;2023-11-19T07:07:16;13.30;89.60
1337;DHT22;662;48.814;9.318;2023-11-19T07:09:42;13.30;89.50
1337;DHT22;662;48.814;9.318;2023-11-19T07:12:08;13.30;89.30
1337;DHT22;662;48.814;9.318;2023-11-19T07:14:34;13.30;89.10
1337;DHT22;662;48.814;9.318;2023-11-19T07:17:00;13.30;89.10
1337;DHT22;662;48.814;9.318;2023-11-19T07:19:26;13.30;88.90
1337;DHT22;662;48.814;9.318;2023-11-19T07:21:51;13.40;88.80
1337;DHT22;662;48.814;9.318;2023-11-19T07:24:20;13.40;88.60
1337;DHT22;662;48.814;9.318;2023-11-19T07:26:53;13.40;88.80
1337;DHT22;662;48.814;9.318;2023-11-19T07:29:20;13.30;88.90
1337;DHT22;662;48.814;9.318;2023-11-19T07:31:48;13.40;88.90
1337;DHT22;662;48.814;9.318;2023-11-19T07:34:14;13.40;88.90
1337;DHT22;662;48.814;9.318;2023-11-19T07:36:39;13.40;88.90
1337;DHT22;662;48.814;9.318;2023-11-19T07:39:05;13.40;88.80
1337;DHT22;662;48.814;9.318;2023-11-19T07:41:34;13.40;88.70
1337;DHT22;662;48.814;9.318;2023-11-19T07:44:00;13.40;88.60
1337;DHT22;662;48.814;9.318;2023-11-19T07:46:26;13.40;88.50
1337;DHT22;662;48.814;9.318;2023-11-19T07:48:52;13.50;88.30
1337;DHT22;662;48.814;9.318;2023-11-19T07:51:18;13.50;88.40
1337;DHT22;662;48.814;9.318;2023-11-19T07:53:43;13.40;88.10
1337;DHT22;662;48.814;9.318;2023-11-19T07:56:09;13.50;88.20
1337;DHT22;662;48.814;9.318;2023-11-19T07:58:35;13.50;88.00
1337;DHT22;662;48.814;9.318;2023-11-19T08:01:02;13.50;88.00
1337;DHT22;662;48.814;9.318;2023-11-19T08:03:28;13.50;88.00
1337;DHT22;662;48.814;9.318;2023-11-19T08:05:58;13.50;87.90
1337;DHT22;662;48.814;9.318;2023-11-19T08:08:26;13.50;87.90
1337;DHT22;662;48.814;9.318;2023-11-19T08:10:52;13.50;87.80
1337;DHT22;662;48.814;9.318;2023-11-19T08:13:21;13.60;88.00
1337;DHT22;662;48.814;9.318;2023-11-19T08:15:47;13.60;88.00
1337;DHT22;662;48.814;9.318;2023-11-19T08:18:13;13.60;87.70
1337;DHT22;662;48.814;9.318;2023-11-19T08:20:39;13.70;87.50
1337;DHT22;662;48.814;9.318;2023-11-19T08:23:04;13.70;87.10
1337;DHT22;662;48.814;9.318;2023-11-19T08:25:30;13.80;86.90
1337;DHT22;662;48.814;9.318;2023-11-19T08:27:56;13.80;86.80
1337;DHT22;662;48.814;9.318;2023-11-19T08:30:21;13.80;86.50
1337;DHT22;662;48.814;9.318;2023-11-19T08:32:47;13.80;86.30
1337;DHT22;662;48.814;9.318;2023-11-19T08:35:13;13.90;86.00
1337;DHT22;662;48.814;9.318;2023-11-19T08:37:41;13.90;85.70
1337;DHT22;662;48.814;9.318;2023-11-19T08:40:08;14.00;85.60
1337;DHT22;662;48.814;9.318;2023-11-19T08:42:33;14.00;85.40
1337;DHT22;662;48.814;9.318;2023-11-19T08:44:59;14.00;85.00
1337;DHT22;662;48.814;9.318;2023-11-19T08:47:24;14.10;84.80
1337;DHT22;662;48.814;9.318;2023-11-19T08:49:51;14.10;84.50
1337;DHT22;662;48.814;9.318;2023-11-19T08:52:17;14.10;84.40
1337;DHT22;662;48.814;9.318;2023-11-19T08:54:44;14.20;84.30
1337;DHT22;662;48.814;9.318;2023-11-19T08:57:09;14.20;84.10
1337;DHT22;662;48.814;9.318;2023-11-19T08:59:35;14.20;83.80
1337;DHT22;662;48.814;9.318;2023-11-19T09:02:06;14.30;83.70
1337;DHT22;662;48.814;9.318;2023-11-19T09:04:32;14.30;83.40
1337;DHT22;662;48.814;9.318;2023-11-19T09:06:59;14.40;83.00
1337;DHT22;662;48.814;9.318;2023-11-19T09:09:24;14.40;82.70
1337;DHT22;662;48.814;9.318;2023-11-19T09:11:50;14.50;82.10
1337;DHT22;662;48.814;9.318;2023-11-19T09:14:16;14.60;81.10
1337;DHT22;662;48.814;9.318;2023-11-19T09:16:43;14.70;80.40
1337;DHT22;662;48.814;9.318;2023-11-19T09:19:09;14.80;80.00
1337;DHT22;662;48.814;9.318;2023-11-19T09:21:34;14.90;79.90
1337;DHT22;662;48.814;9.318;2023-11-19T09:24:04;15.00;79.50
1337;DHT22;662;48.814;9.318;2023-11-19T09:26:29;15.00;78.70
1337;DHT22;662;48.814;9.318;2023-11-19T09:28:56;15.00;78.40
1337;DHT22;662;48.814;9.318;2023-11-19T09:31:21;15.00;78.20
1337;DHT22;662;48.814;9.318;2023-11-19T09:33:47;15.10;78.10
1337;DHT22;662;48.814;9.318;2023-11-19T09:36:13;15.10;77.80
1337;DHT22;662;48.814;9.318;2023-11-19T09:38:45;15.10;77.40
1337;DHT22;662;48.814;9.318;2023-11-19T09:41:11;15.10;77.10
1337;DHT22;662;48.814;9.318;2023-11-19T09:43:40;15.10;76.90
1337;DHT22;662;48.814;9.318;2023-11-19T09:46:08;15.10;76.50
1337;DHT22;662;48.814;9.318;2023-11-19T09:48:37;15.20;76.50
1337;DHT22;662;48.814;9.318;2023-11-19T09:51:05;15.20;76.50
1337;DHT22;662;48.814;9.318;2023-11-19T09:53:31;15.20;76.30
1337;DHT22;662;48.814;9.318;2023-11-19T09:55:59;15.30;76.00
1337;DHT22;662;48.814;9.318;2023-11-19T09:58:26;15.40;75.80
1337;DHT22;662;48.814;9.318;2023-11-19T10:00:51;15.50;75.70
1337;DHT22;662;48.814;9.318;2023-11-19T10:03:17;15.60;75.70
1337;DHT22;662;48.814;9.318;2023-11-19T10:05:43;15.70;75.40
1337;DHT22;662;48.814;9.318;2023-11-19T10:08:09;15.80;75.20
1337;DHT22;662;48.814;9.318;2023-11-19T10:10:36;15.90;74.90
1337;DHT22;662;48.814;9.318;2023-11-19T10:13:03;15.90;74.70
1337;DHT22;662;48.814;9.318;2023-11-19T10:15:36;16.00;74.60
1337;DHT22;662;48.814;9.318;2023-11-19T10:18:02;16.10;74.40
1337;DHT22;662;48.814;9.318;2023-11-19T10:20:35;16.20;73.70
1337;DHT22;662;48.814;9.318;2023-11-19T10:23:02;16.30;73.20
1337;DHT22;662;48.814;9.318;2023-11-19T10:25:28;16.40;73.10
1337;DHT22;662;48.814;9.318;2023-11-19T10:27:55;16.40;72.90
1337;DHT22;662;48.814;9.318;2023-11-19T10:30:30;16.50;72.60
1337;DHT22;662;48.814;9.318;2023-11-19T10:33:06;16.60;72.20
1337;DHT22;662;48.814;9.318;2023-11-19T10:35:33;16.60;72.00
1337;DHT22;662;48.814;9.318;2023-11-19T10:38:00;16.70;71.90
1337;DHT22;662;48.814;9.318;2023-11-19T10:40:38;16.70;71.30
1337;DHT22;662;48.814;9.318;2023-11-19T10:43:07;16.80;70.70
1337;DHT22;662;48.814;9.318;2023-11-19T10:45:34;16.80;70.30
1337;DHT22;662;48.814;9.318;2023-11-19T10:48:00;16.70;70.30
1337;DHT22;662;48.814;9.318;2023-11-19T10:50:27;16.80;70.20
1337;DHT22;662;48.814;9.318;2023-11-19T10:52:56;16.80;70.00
1337;DHT22;662;48.814;9.318;2023-11-19T10:55:29;16.80;70.00
1337;DHT22;662;48.814;9.318;2023-11-19T10:58:09;16.90;70.20
1337;DHT22;662;48.814;9.318;2023-11-19T11:00:46;17.00;70.20
1337;DHT22;662;48.814;9.318;2023-11-19T11:03:20;17.10;70.10
1337;DHT22;662;48.814;9.318;2023-11-19T11:05:49;17.10;70.00
1337;DHT22;662;48.814;9.318;2023-11-19T11:08:15;17.10;69.90
1337;DHT22;662;48.814;9.318;2023-11-19T11:10:55;17.10;69.80
1337;DHT22;662;48.814;9.318;2023-11-19T11:13:23;17.10;69.70
1337;DHT22;662;48.814;9.318;2023-11-19T11:15:58;17.00;69.70
1337;DHT22;662;48.814;9.318;2023-11-19T11:18:24;17.10;69.90
1337;DHT22;662;48.814;9.318;2023-11-19T11:21:14;17.10;70.00
1337;DHT22;662;48.814;9.318;2023-11-19T11:35:17;16.90;67.20
1337;DHT22;662;48.814;9.318;2023-11-19T11:37:49;16.80;66.80
1337;DHT22;662;48.814;9.318;2023-11-19T11:40:16;16.90;66.40
1337;DHT22;662;48.814;9.318;2023-11-19T11:42:43;16.80;66.00
1337;DHT22;662;48.814;9.318;2023-11-19T11:45:14;16.90;66.00
1337;DHT22;662;48.814;9.318;2023-11-19T11:50:15;16.80;65.60
1337;DHT22;662;48.814;9.318;2023-11-19T11:55:25;16.90;65.10
1337;DHT22;662;48.814;9.318;2023-11-19T11:57:51;16.90;64.80
1337;DHT22;662;48.814;9.318;2023-11-19T12:00:42;16.90;64.00
1337;DHT22;662;48.814;9.318;2023-11-19T12:03:09;16.90;63.50
1337;DHT22;662;48.814;9.318;2023-11-19T12:05:44;16.90;63.20
1337;DHT22;662;48.814;9.318;2023-11-19T12:08:11;16.90;63.00
1337;DHT22;662;48.814;9.318;2023-11-19T12:10:49;16.90;63.20
1337;DHT22;662;48.814;9.318;2023-11-19T12:13:16;17.00;63.40
1337;DHT22;662;48.814;9.318;2023-11-19T12:18:26;17.20;63.00
1337;DHT22;662;48.814;9.318;2023-11-19T12:20:51;17.20;62.50
1337;DHT22;662;48.814;9.318;2023-11-19T12:23:17;17.30;62.40
1337;DHT22;662;48.814;9.318;2023-11-19T12:25:43;17.30;62.50
1337;DHT22;662;48.814;9.318;2023-11-19T12:28:14;17.20;62.10
1337;DHT22;662;48.814;9.318;2023-11-19T12:30:42;17.20;61.80
1337;DHT22;662;48.814;9.318;2023-11-19T12:33:09;17.20;61.90
1337;DHT22;662;48.814;9.318;2023-11-19T12:35:42;17.20;61.90
1337;DHT22;662;48.814;9.318;2023-11-19T12:38:21;17.30;62.20
1337;DHT22;662;48.814;9.318;2023-11-19T12:40:48;17.20;60.80
1337;DHT22;662;48.814;9.318;2023-11-19T12:43:30;17.20;59.80
1337;DHT22;662;48.814;9.318;2023-11-19T12:45:56;17.20;59.30
1337;DHT22;662;48.814;9.318;2023-11-19T12:48:22;17.30;58.90
1337;DHT22;662;48.814;9.318;2023-11-19T12:50:51;17.20;58.10
1337;DHT22;662;48.814;9.318;2023-11-19T12:53:18;17.20;58.20
1337;DHT22;662;48.814;9.318;2023-11-19T12:55:44;17.10;57.20
1337;DHT22;662;48.814;9.318;2023-11-19T12:58:10;17.10;57.20
1337;DHT22;662;48.814;9.318;2023-11-19T13:00:36;17.10;56.80
1337;DHT22;662;48.814;9.318;2023-11-19T13:03:01;17.20;56.70
1337;DHT22;662;48.814;9.318;2023-11-19T13:08:04;17.30;56.00
1337;DHT22;662;48.814;9.318;2023-11-19T13:13:14;17.40;55.00
1337;DHT22;662;48.814;9.318;2023-11-19T13:15:39;17.50;55.80
1337;DHT22;662;48.814;9.318;2023-11-19T13:18:05;17.50;55.60
1337;DHT22;662;48.814;9.318;2023-11-19T13:20:32;17.60;55.40
1337;DHT22;662;48.814;9.318;2023-11-19T13:22:59;17.60;55.70
1337;DHT22;662;48.814;9.318;2023-11-19T13:25:29;17.60;56.10
1337;DHT22;662;48.814;9.318;2023-11-19T13:27:57;17.60;56.40
1337;DHT22;662;48.814;9.318;2023-11-19T13:30:24;17.60;56.10
1337;DHT22;662;48.814;9.318;2023-11-19T13:32:51;17.60;56.30
1337;DHT22;662;48.814;9.318;2023-11-19T13:35:17;17.60;55.80
1337;DHT22;662;48.814;9.318;2023-11-19T13:37:43;17.60;55.90
1337;DHT22;662;48.814;9.318;2023-11-19T13:40:09;17.60;55.70
1337;DHT22;662;48.814;9.318;2023-11-19T13:42:36;17.60;54.70
1337;DHT22;662;48.814;9.318;2023-11-19T13:45:05;17.60;54.20
1337;DHT22;662;48.814;9.318;2023-11-19T13:47:31;17.60;54.20
1337;DHT22;662;48.814;9.318;2023-11-19T13:49:56;17.60;54.70
1337;DHT22;662;48.814;9.318;2023-11-19T13:52:22;17.60;54.70
1337;DHT22;662;48.814;9.318;2023-11-19T13:54:47;17.60;53.50
1337;DHT22;662;48.814;9.318;2023-11-19T13:57:13;17.60;54.00
1337;DHT22;662;48.814;9.318;2023-11-19T13:59:41;17.60;54.40
1337;DHT22;662;48.814;9.318;2023-11-19T14:02:07;17.60;54.20
1337;DHT22;662;48.814;9.318;2023-11-19T14:04:33;17.60;53.90
1337;DHT22;662;48.814;9.318;2023-11-19T14:06:59;17.60;53.80
1337;DHT22;662;48.814;9.318;2023-11-19T14:09:24;17.70;54.00
1337;DHT22;662;48.814;9.318;2023-11-19T14:11:50;17.70;52.80
1337;DHT22;662;48.814;9.318;2023-11-19T14:14:16;17.70;51.80
1337;DHT22;662;48.814;9.318;2023-11-19T14:16:42;17.60;52.00
1337;DHT22;662;48.814;9.318;2023-11-19T14:19:08;17.60;51.90
1337;DHT22;662;48.814;9.318;2023-11-19T14:21:33;17.50;50.80
1337;DHT22;662;48.814;9.318;2023-11-19T14:23:59;17.40;51.40
1337;DHT22;662;48.814;9.318;2023-11-19T14:26:24;17.30;51.50
1337;DHT22;662;48.814;9.318;2023-11-19T14:28:50;17.20;51.40
1337;DHT22;662;48.814;9.318;2023-11-19T14:31:16;17.10;51.30
1337;DHT22;662;48.814;9.318;2023-11-19T14:33:41;17.00;51.40
1337;DHT22;662;48.814;9.318;2023-11-19T14:36:07;17.00;51.90
1337;DHT22;662;48.814;9.318;2023-11-19T14:38:33;16.90;51.80
1337;DHT22;662;48.814;9.318;2023-11-19T14:40:59;16.80;51.50
1337;DHT22;662;48.814;9.318;2023-11-19T14:43:25;16.80;52.10
1337;DHT22;662;48.814;9.318;2023-11-19T14:45:51;16.70;52.30
1337;DHT22;662;48.814;9.318;2023-11-19T14:48:17;16.70;52.40
1337;DHT22;662;48.814;9.318;2023-11-19T14:50:43;16.60;52.40
1337;DHT22;662;48.814;9.318;2023-11-19T14:53:10;16.60;52.40
1337;DHT22;662;48.814;9.318;2023-11-19T14:55:36;16.50;52.90
1337;DHT22;662;48.814;9.318;2023-11-19T14:58:02;16.50;53.20
1337;DHT22;662;48.814;9.318;2023-11-19T15:00:28;16.50;53.50
1337;DHT22;662;48.814;9.318;2023-11-19T15:02:54;16.40;53.70
1337;DHT22;662;48.814;9.318;2023-11-19T15:05:20;16.40;53.90
1337;DHT22;662;48.814;9.318;2023-11-19T15:07:45;16.40;54.30
1337;DHT22;662;48.814;9.318;2023-11-19T15:10:11;16.30;54.60
1337;DHT22;662;48.814;9.318;2023-11-19T15:12:38;16.30;54.90
1337;DHT22;662;48.814;9.318;2023-11-19T15:15:09;16.20;54.90
1337;DHT22;662;48.814;9.318;2023-11-19T15:17:36;16.20;55.10
1337;DHT22;662;48.814;9.318;2023-11-19T15:20:03;16.10;55.30
1337;DHT22;662;48.814;9.318;2023-11-19T15:22:29;16.10;55.70
1337;DHT22;662;48.814;9.318;2023-11-19T15:24:55;16.10;55.90
1337;DHT22;662;48.814;9.318;2023-11-19T15:27:21;16.00;56.00
1337;DHT22;662;48.814;9.318;2023-11-19T15:29:47;16.00;55.90
1337;DHT22;662;48.814;9.318;2023-11-19T15:32:14;15.90;55.80
1337;DHT22;662;48.814;9.318;2023-11-19T15:34:39;15.90;55.80
1337;DHT22;662;48.814;9.318;2023-11-19T15:37:07;15.80;55.40
1337;DHT22;662;48.814;9.318;2023-11-19T15:39:33;15.80;55.40
1337;DHT22;662;48.814;9.318;2023-11-19T15:41:59;15.70;55.20
1337;DHT22;662;48.814;9.318;2023-11-19T15:44:25;15.70;54.90
1337;DHT22;662;48.814;9.318;2023-11-19T15:46:50;15.60;54.80
1337;DHT22;662;48.814;9.318;2023-11-19T15:49:16;15.60;54.60
1337;DHT22;662;48.814;9.318;2023-11-19T15:51:42;15.60;54.60
1337;DHT22;662;48.814;9.318;2023-11-19T15:54:08;15.60;54.80
1337;DHT22;662;48.814;9.318;2023-11-19T15:56:33;15.50;54.90
1337;DHT22;662;48.814;9.318;2023-11-19T15:58:59;15.50;55.30
1337;DHT22;662;48.814;9.318;2023-11-19T16:01:24;15.40;55.30
1337;DHT22;662;48.814;9.318;2023-11-19T16:03:50;15.40;55.30
1337;DHT22;662;48.814;9.318;2023-11-19T16:06:17;15.30;55.50
1337;DHT22;662;48.814;9.318;2023-11-19T16:08:43;15.30;55.60
1337;DHT22;662;48.814;9.318;2023-11-19T16:11:09;15.30;55.80
1337;DHT22;662;48.814;9.318;2023-11-19T16:13:35;15.20;55.90
1337;DHT22;662;48.814;9.318;2023-11-19T16:16:01;15.20;56.10
1337;DHT22;662;48.814;9.318;2023-11-19T16:18:27;15.20;56.40
1337;DHT22;662;48.814;9.318;2023-11-19T16:20:54;15.10;56.50
1337;DHT22;662;48.814;9.318;2023-11-19T16:23:20;15.10;56.60
1337;DHT22;662;48.814;9.318;2023-11-19T16:25:46;15.10;56.80
1337;DHT22;662;48.814;9.318;2023-11-19T16:28:11;15.00;56.80
1337;DHT22;662;48.814;9.318;2023-11-19T16:30:37;15.00;56.90
1337;DHT22;662;48.814;9.318;2023-11-19T16:33:03;15.00;56.90
1337;DHT22;662;48.814;9.318;2023-11-19T16:35:28;15.00;57.00
1337;DHT22;662;48.814;9.318;2023-11-19T16:37:54;14.90;57.10
1337;DHT22;662;48.814;9.318;2023-11-19T16:40:20;14.90;57.30